Terminal Aerodrome Forecast
Issued by NWS

Home | Current Version | Previous Version | Text Only | Print | Product List | Glossary On
Versions: 1 2 3 4 5 6 7 8 9 10 11 12 13 14 15 16 17 18 19 20
000
FTUS43 KJKL 242300
TAFSME
TAF
KSME 242328Z 2500/2524 07006KT P6SM SCT029
     FM250800 01002KT 4SM BR SCT020
     FM251000 00000KT 1/4SM FG VV001
     FM251500 06005KT P6SM FEW020=

USA.gov is the U.S. government's official web portal to all federal, state and local government web resources and services.